sensor_id;sensor_type;location;lat;lon;timestamp;pressure;altitude;pressure_sealevel;temperature
69435;BMP180;56625;54.322;18.582;2024-01-25T00:00:42;99290.00;;;5.90
69435;BMP180;56625;54.322;18.582;2024-01-25T00:03:31;99291.40;;;5.82
69435;BMP180;56625;54.322;18.582;2024-01-25T00:05:59;99296.80;;;5.86
69435;BMP180;56625;54.322;18.582;2024-01-25T00:08:28;99295.40;;;5.86
69435;BMP180;56625;54.322;18.582;2024-01-25T00:10:55;99296.20;;;5.80
69435;BMP180;56625;54.322;18.582;2024-01-25T00:13:24;99300.00;;;5.80
69435;BMP180;56625;54.322;18.582;2024-01-25T00:15:52;99317.00;;;5.80
69435;BMP180;56625;54.322;18.582;2024-01-25T00:18:20;99313.60;;;5.80
69435;BMP180;56625;54.322;18.582;2024-01-25T00:20:48;99313.40;;;5.80
69435;BMP180;56625;54.322;18.582;2024-01-25T00:23:17;99315.80;;;5.80
69435;BMP180;56625;54.322;18.582;2024-01-25T00:25:45;99319.80;;;5.80
69435;BMP180;56625;54.322;18.582;2024-01-25T00:28:13;99320.20;;;5.90
69435;BMP180;56625;54.322;18.582;2024-01-25T00:30:41;99327.60;;;5.90
69435;BMP180;56625;54.322;18.582;2024-01-25T00:33:10;99328.00;;;5.90
69435;BMP180;56625;54.322;18.582;2024-01-25T00:35:38;99327.20;;;5.90
69435;BMP180;56625;54.322;18.582;2024-01-25T00:38:07;99334.60;;;5.90
69435;BMP180;56625;54.322;18.582;2024-01-25T00:40:36;99331.40;;;5.90
69435;BMP180;56625;54.322;18.582;2024-01-25T00:43:05;99329.40;;;5.90
69435;BMP180;56625;54.322;18.582;2024-01-25T00:45:34;99326.60;;;5.96
69435;BMP180;56625;54.322;18.582;2024-01-25T00:48:02;99331.80;;;6.00
69435;BMP180;56625;54.322;18.582;2024-01-25T00:50:31;99333.80;;;5.90
69435;BMP180;56625;54.322;18.582;2024-01-25T00:53:00;99324.40;;;5.90
69435;BMP180;56625;54.322;18.582;2024-01-25T00:55:29;99331.20;;;5.84
69435;BMP180;56625;54.322;18.582;2024-01-25T00:57:57;99333.80;;;5.82
69435;BMP180;56625;54.322;18.582;2024-01-25T01:00:27;99336.20;;;5.80
69435;BMP180;56625;54.322;18.582;2024-01-25T01:02:58;99335.80;;;5.80
69435;BMP180;56625;54.322;18.582;2024-01-25T01:05:28;99336.60;;;5.80
69435;BMP180;56625;54.322;18.582;2024-01-25T01:07:57;99344.60;;;5.70
69435;BMP180;56625;54.322;18.582;2024-01-25T01:10:25;99356.20;;;5.70
69435;BMP180;56625;54.322;18.582;2024-01-25T01:12:54;99361.60;;;5.70
69435;BMP180;56625;54.322;18.582;2024-01-25T01:15:22;99357.40;;;5.70
69435;BMP180;56625;54.322;18.582;2024-01-25T01:17:50;99355.20;;;5.70
69435;BMP180;56625;54.322;18.582;2024-01-25T01:20:18;99364.40;;;5.70
69435;BMP180;56625;54.322;18.582;2024-01-25T01:22:47;99365.40;;;5.70
69435;BMP180;56625;54.322;18.582;2024-01-25T01:25:15;99362.00;;;5.70
69435;BMP180;56625;54.322;18.582;2024-01-25T01:27:43;99357.60;;;5.70
69435;BMP180;56625;54.322;18.582;2024-01-25T01:30:11;99362.40;;;5.70
69435;BMP180;56625;54.322;18.582;2024-01-25T01:32:39;99359.20;;;5.70
69435;BMP180;56625;54.322;18.582;2024-01-25T01:35:07;99345.20;;;5.70
69435;BMP180;56625;54.322;18.582;2024-01-25T01:37:36;99359.00;;;5.70
69435;BMP180;56625;54.322;18.582;2024-01-25T01:40:05;99352.20;;;5.72
69435;BMP180;56625;54.322;18.582;2024-01-25T01:42:33;99365.20;;;5.80
69435;BMP180;56625;54.322;18.582;2024-01-25T01:45:01;99368.60;;;5.80
69435;BMP180;56625;54.322;18.582;2024-01-25T01:47:29;99366.80;;;5.80
69435;BMP180;56625;54.322;18.582;2024-01-25T01:49:58;99365.40;;;5.80
69435;BMP180;56625;54.322;18.582;2024-01-25T01:52:27;99361.40;;;5.80
69435;BMP180;56625;54.322;18.582;2024-01-25T01:54:56;99360.20;;;5.80
69435;BMP180;56625;54.322;18.582;2024-01-25T01:57:24;99364.60;;;5.80
69435;BMP180;56625;54.322;18.582;2024-01-25T01:59:52;99357.20;;;5.74
69435;BMP180;56625;54.322;18.582;2024-01-25T02:02:21;99369.60;;;5.70
69435;BMP180;56625;54.322;18.582;2024-01-25T02:04:49;99363.60;;;5.70
69435;BMP180;56625;54.322;18.582;2024-01-25T02:07:18;99363.80;;;5.70
69435;BMP180;56625;54.322;18.582;2024-01-25T02:09:46;99360.40;;;5.70
69435;BMP180;56625;54.322;18.582;2024-01-25T02:12:17;99365.80;;;5.70
69435;BMP180;56625;54.322;18.582;2024-01-25T02:14:45;99364.40;;;5.68
69435;BMP180;56625;54.322;18.582;2024-01-25T02:17:13;99367.20;;;5.70
69435;BMP180;56625;54.322;18.582;2024-01-25T02:19:42;99362.00;;;5.64
69435;BMP180;56625;54.322;18.582;2024-01-25T02:22:10;99369.60;;;5.60
69435;BMP180;56625;54.322;18.582;2024-01-25T02:24:38;99366.80;;;5.60
69435;BMP180;56625;54.322;18.582;2024-01-25T02:27:07;99377.60;;;5.60
69435;BMP180;56625;54.322;18.582;2024-01-25T02:29:35;99379.40;;;5.60
69435;BMP180;56625;54.322;18.582;2024-01-25T02:32:04;99375.00;;;5.56
69435;BMP180;56625;54.322;18.582;2024-01-25T02:34:32;99370.00;;;5.50
69435;BMP180;56625;54.322;18.582;2024-01-25T02:37:00;99384.20;;;5.50
69435;BMP180;56625;54.322;18.582;2024-01-25T02:39:29;99376.20;;;5.50
69435;BMP180;56625;54.322;18.582;2024-01-25T02:41:57;99385.20;;;5.50
69435;BMP180;56625;54.322;18.582;2024-01-25T02:44:26;99388.00;;;5.50
69435;BMP180;56625;54.322;18.582;2024-01-25T02:46:54;99382.00;;;5.56
69435;BMP180;56625;54.322;18.582;2024-01-25T02:49:23;99391.40;;;5.50
69435;BMP180;56625;54.322;18.582;2024-01-25T02:51:53;99396.20;;;5.52
69435;BMP180;56625;54.322;18.582;2024-01-25T02:54:22;99392.00;;;5.56
69435;BMP180;56625;54.322;18.582;2024-01-25T02:56:50;99398.60;;;5.60
69435;BMP180;56625;54.322;18.582;2024-01-25T02:59:19;99398.80;;;5.60
69435;BMP180;56625;54.322;18.582;2024-01-25T03:01:49;99399.40;;;5.58
69435;BMP180;56625;54.322;18.582;2024-01-25T03:04:18;99398.60;;;5.60
69435;BMP180;56625;54.322;18.582;2024-01-25T03:06:47;99392.60;;;5.60
69435;BMP180;56625;54.322;18.582;2024-01-25T03:09:18;99401.20;;;5.64
69435;BMP180;56625;54.322;18.582;2024-01-25T03:11:48;99400.20;;;5.70
69435;BMP180;56625;54.322;18.582;2024-01-25T03:14:17;99410.40;;;5.64
69435;BMP180;56625;54.322;18.582;2024-01-25T03:16:45;99416.00;;;5.68
69435;BMP180;56625;54.322;18.582;2024-01-25T03:19:14;99419.60;;;5.70
69435;BMP180;56625;54.322;18.582;2024-01-25T03:21:43;99414.80;;;5.70
69435;BMP180;56625;54.322;18.582;2024-01-25T03:24:12;99418.60;;;5.70
69435;BMP180;56625;54.322;18.582;2024-01-25T03:26:40;99428.20;;;5.70
69435;BMP180;56625;54.322;18.582;2024-01-25T03:29:08;99440.00;;;5.70
69435;BMP180;56625;54.322;18.582;2024-01-25T03:31:36;99441.20;;;5.62
69435;BMP180;56625;54.322;18.582;2024-01-25T03:34:06;99443.80;;;5.62
69435;BMP180;56625;54.322;18.582;2024-01-25T03:36:34;99439.40;;;5.62
69435;BMP180;56625;54.322;18.582;2024-01-25T03:39:03;99445.60;;;5.62
69435;BMP180;56625;54.322;18.582;2024-01-25T03:41:31;99452.60;;;5.64
69435;BMP180;56625;54.322;18.582;2024-01-25T03:43:59;99457.80;;;5.60
69435;BMP180;56625;54.322;18.582;2024-01-25T03:46:27;99467.80;;;5.60
69435;BMP180;56625;54.322;18.582;2024-01-25T03:48:56;99464.20;;;5.60
69435;BMP180;56625;54.322;18.582;2024-01-25T03:51:24;99447.60;;;5.60
69435;BMP180;56625;54.322;18.582;2024-01-25T03:53:52;99458.40;;;5.60
69435;BMP180;56625;54.322;18.582;2024-01-25T03:56:23;99462.40;;;5.58
69435;BMP180;56625;54.322;18.582;2024-01-25T03:58:51;99461.60;;;5.60
69435;BMP180;56625;54.322;18.582;2024-01-25T04:01:19;99466.00;;;5.50
69435;BMP180;56625;54.322;18.582;2024-01-25T04:03:47;99480.60;;;5.50
69435;BMP180;56625;54.322;18.582;2024-01-25T04:06:16;99482.80;;;5.50
69435;BMP180;56625;54.322;18.582;2024-01-25T04:08:44;99482.60;;;5.50
69435;BMP180;56625;54.322;18.582;2024-01-25T04:11:12;99479.60;;;5.50
69435;BMP180;56625;54.322;18.582;2024-01-25T04:13:41;99479.00;;;5.50
69435;BMP180;56625;54.322;18.582;2024-01-25T04:16:14;99482.40;;;5.50
69435;BMP180;56625;54.322;18.582;2024-01-25T04:18:42;99486.20;;;5.52
69435;BMP180;56625;54.322;18.582;2024-01-25T04:21:11;99483.20;;;5.50
69435;BMP180;56625;54.322;18.582;2024-01-25T04:23:39;99485.60;;;5.50
69435;BMP180;56625;54.322;18.582;2024-01-25T04:26:07;99486.20;;;5.50
69435;BMP180;56625;54.322;18.582;2024-01-25T04:28:35;99486.80;;;5.50
69435;BMP180;56625;54.322;18.582;2024-01-25T04:31:03;99488.40;;;5.50
69435;BMP180;56625;54.322;18.582;2024-01-25T04:33:31;99486.80;;;5.50
69435;BMP180;56625;54.322;18.582;2024-01-25T04:35:59;99502.00;;;5.60
69435;BMP180;56625;54.322;18.582;2024-01-25T04:38:28;99507.60;;;5.60
69435;BMP180;56625;54.322;18.582;2024-01-25T04:40:57;99522.60;;;5.60
69435;BMP180;56625;54.322;18.582;2024-01-25T04:43:37;99528.80;;;5.62
69435;BMP180;56625;54.322;18.582;2024-01-25T04:46:09;99531.20;;;5.66
69435;BMP180;56625;54.322;18.582;2024-01-25T04:48:40;99539.20;;;5.60
69435;BMP180;56625;54.322;18.582;2024-01-25T04:51:15;99542.40;;;5.60
69435;BMP180;56625;54.322;18.582;2024-01-25T04:53:43;99557.00;;;5.60
69435;BMP180;56625;54.322;18.582;2024-01-25T04:56:12;99559.40;;;5.60
69435;BMP180;56625;54.322;18.582;2024-01-25T04:58:40;99562.60;;;5.60
69435;BMP180;56625;54.322;18.582;2024-01-25T05:01:11;99565.00;;;5.54
69435;BMP180;56625;54.322;18.582;2024-01-25T05:03:40;99561.00;;;5.50
69435;BMP180;56625;54.322;18.582;2024-01-25T05:06:09;99564.00;;;5.50
69435;BMP180;56625;54.322;18.582;2024-01-25T05:08:38;99566.40;;;5.50
69435;BMP180;56625;54.322;18.582;2024-01-25T05:11:07;99571.80;;;5.50
69435;BMP180;56625;54.322;18.582;2024-01-25T05:13:37;99578.00;;;5.50
69435;BMP180;56625;54.322;18.582;2024-01-25T05:16:05;99581.40;;;5.50
69435;BMP180;56625;54.322;18.582;2024-01-25T05:18:37;99586.80;;;5.50
69435;BMP180;56625;54.322;18.582;2024-01-25T05:21:06;99596.60;;;5.50
69435;BMP180;56625;54.322;18.582;2024-01-25T05:23:42;99604.20;;;5.50
69435;BMP180;56625;54.322;18.582;2024-01-25T05:26:14;99610.00;;;5.50
69435;BMP180;56625;54.322;18.582;2024-01-25T05:28:43;99610.20;;;5.50
69435;BMP180;56625;54.322;18.582;2024-01-25T05:31:12;99615.60;;;5.50
69435;BMP180;56625;54.322;18.582;2024-01-25T05:33:44;99613.60;;;5.50
69435;BMP180;56625;54.322;18.582;2024-01-25T05:36:13;99617.60;;;5.50
69435;BMP180;56625;54.322;18.582;2024-01-25T05:38:42;99627.00;;;5.50
69435;BMP180;56625;54.322;18.582;2024-01-25T05:41:10;99617.60;;;5.50
69435;BMP180;56625;54.322;18.582;2024-01-25T05:43:37;99618.60;;;5.52
69435;BMP180;56625;54.322;18.582;2024-01-25T05:46:05;99630.40;;;5.60
69435;BMP180;56625;54.322;18.582;2024-01-25T05:48:34;99634.80;;;5.60
69435;BMP180;56625;54.322;18.582;2024-01-25T05:51:02;99629.80;;;5.60
69435;BMP180;56625;54.322;18.582;2024-01-25T05:53:30;99641.40;;;5.60
69435;BMP180;56625;54.322;18.582;2024-01-25T05:55:58;99641.80;;;5.60
69435;BMP180;56625;54.322;18.582;2024-01-25T05:58:26;99645.00;;;5.60
69435;BMP180;56625;54.322;18.582;2024-01-25T06:00:54;99650.20;;;5.60
69435;BMP180;56625;54.322;18.582;2024-01-25T06:03:22;99648.80;;;5.68
69435;BMP180;56625;54.322;18.582;2024-01-25T06:05:50;99651.60;;;5.70
69435;BMP180;56625;54.322;18.582;2024-01-25T06:08:19;99655.40;;;5.70
69435;BMP180;56625;54.322;18.582;2024-01-25T06:10:47;99671.00;;;5.70
69435;BMP180;56625;54.322;18.582;2024-01-25T06:13:15;99680.60;;;5.70
69435;BMP180;56625;54.322;18.582;2024-01-25T06:15:44;99685.00;;;5.70
69435;BMP180;56625;54.322;18.582;2024-01-25T06:18:12;99687.00;;;5.70
69435;BMP180;56625;54.322;18.582;2024-01-25T06:20:40;99696.20;;;5.70
69435;BMP180;56625;54.322;18.582;2024-01-25T06:23:10;99688.60;;;5.80
69435;BMP180;56625;54.322;18.582;2024-01-25T06:25:38;99697.60;;;5.78
69435;BMP180;56625;54.322;18.582;2024-01-25T06:28:09;99709.20;;;5.80
69435;BMP180;56625;54.322;18.582;2024-01-25T06:30:37;99706.00;;;5.80
69435;BMP180;56625;54.322;18.582;2024-01-25T06:33:07;99714.60;;;5.80
69435;BMP180;56625;54.322;18.582;2024-01-25T06:35:39;99715.40;;;5.80
69435;BMP180;56625;54.322;18.582;2024-01-25T06:38:08;99719.80;;;5.78
69435;BMP180;56625;54.322;18.582;2024-01-25T06:40:36;99724.20;;;5.80
69435;BMP180;56625;54.322;18.582;2024-01-25T06:43:05;99731.20;;;5.80
69435;BMP180;56625;54.322;18.582;2024-01-25T06:45:34;99741.80;;;5.80
69435;BMP180;56625;54.322;18.582;2024-01-25T06:48:03;99758.20;;;5.80
69435;BMP180;56625;54.322;18.582;2024-01-25T06:50:34;99762.60;;;5.80
69435;BMP180;56625;54.322;18.582;2024-01-25T06:53:08;99770.40;;;5.80
69435;BMP180;56625;54.322;18.582;2024-01-25T06:55:36;99774.80;;;5.80
69435;BMP180;56625;54.322;18.582;2024-01-25T06:58:04;99784.80;;;5.76
69435;BMP180;56625;54.322;18.582;2024-01-25T07:00:32;99799.80;;;5.70
69435;BMP180;56625;54.322;18.582;2024-01-25T07:03:01;99811.40;;;5.70
69435;BMP180;56625;54.322;18.582;2024-01-25T07:05:30;99823.60;;;5.70
69435;BMP180;56625;54.322;18.582;2024-01-25T07:08:02;99829.00;;;5.70
69435;BMP180;56625;54.322;18.582;2024-01-25T07:10:31;99838.40;;;5.78
69435;BMP180;56625;54.322;18.582;2024-01-25T07:13:00;99838.80;;;5.74
69435;BMP180;56625;54.322;18.582;2024-01-25T07:15:28;99855.80;;;5.70
69435;BMP180;56625;54.322;18.582;2024-01-25T07:17:57;99860.00;;;5.70
69435;BMP180;56625;54.322;18.582;2024-01-25T07:20:25;99863.00;;;5.70
69435;BMP180;56625;54.322;18.582;2024-01-25T07:22:53;99872.00;;;5.70
69435;BMP180;56625;54.322;18.582;2024-01-25T07:25:24;99882.20;;;5.74
69435;BMP180;56625;54.322;18.582;2024-01-25T07:27:53;99882.20;;;5.80
69435;BMP180;56625;54.322;18.582;2024-01-25T07:30:21;99898.20;;;5.78
69435;BMP180;56625;54.322;18.582;2024-01-25T07:32:49;99912.80;;;5.70
69435;BMP180;56625;54.322;18.582;2024-01-25T07:35:20;99921.40;;;5.60
69435;BMP180;56625;54.322;18.582;2024-01-25T07:37:49;99927.80;;;5.48
69435;BMP180;56625;54.322;18.582;2024-01-25T07:40:17;99935.60;;;5.36
69435;BMP180;56625;54.322;18.582;2024-01-25T07:42:46;99945.40;;;5.26
69435;BMP180;56625;54.322;18.582;2024-01-25T07:45:16;99946.20;;;5.10
69435;BMP180;56625;54.322;18.582;2024-01-25T07:47:44;99949.80;;;5.00
69435;BMP180;56625;54.322;18.582;2024-01-25T07:50:12;99954.00;;;4.90
69435;BMP180;56625;54.322;18.582;2024-01-25T07:52:40;99968.60;;;4.80
69435;BMP180;56625;54.322;18.582;2024-01-25T07:55:08;99977.80;;;4.70
69435;BMP180;56625;54.322;18.582;2024-01-25T07:57:37;99985.60;;;4.70
69435;BMP180;56625;54.322;18.582;2024-01-25T08:00:06;99994.60;;;4.60
69435;BMP180;56625;54.322;18.582;2024-01-25T08:02:38;100005.40;;;4.60
69435;BMP180;56625;54.322;18.582;2024-01-25T08:05:11;100012.60;;;4.50
69435;BMP180;56625;54.322;18.582;2024-01-25T08:07:39;100023.40;;;4.50
69435;BMP180;56625;54.322;18.582;2024-01-25T08:10:08;100030.00;;;4.50
69435;BMP180;56625;54.322;18.582;2024-01-25T08:12:36;100038.00;;;4.46
69435;BMP180;56625;54.322;18.582;2024-01-25T08:15:14;100041.20;;;4.40
69435;BMP180;56625;54.322;18.582;2024-01-25T08:17:46;100052.60;;;4.40
69435;BMP180;56625;54.322;18.582;2024-01-25T08:20:14;100063.60;;;4.36
69435;BMP180;56625;54.322;18.582;2024-01-25T08:22:45;100073.40;;;4.30
69435;BMP180;56625;54.322;18.582;2024-01-25T08:25:14;100082.40;;;4.30
69435;BMP180;56625;54.322;18.582;2024-01-25T08:27:44;100093.60;;;4.30
69435;BMP180;56625;54.322;18.582;2024-01-25T08:30:13;100096.40;;;4.20
69435;BMP180;56625;54.322;18.582;2024-01-25T08:32:42;100107.80;;;4.10
69435;BMP180;56625;54.322;18.582;2024-01-25T08:35:11;100114.60;;;4.10
69435;BMP180;56625;54.322;18.582;2024-01-25T08:37:40;100120.60;;;4.00
69435;BMP180;56625;54.322;18.582;2024-01-25T08:40:09;100124.20;;;4.00
69435;BMP180;56625;54.322;18.582;2024-01-25T08:42:39;100124.20;;;4.00
69435;BMP180;56625;54.322;18.582;2024-01-25T08:45:08;100132.20;;;3.92
69435;BMP180;56625;54.322;18.582;2024-01-25T08:47:39;100149.00;;;3.90
69435;BMP180;56625;54.322;18.582;2024-01-25T08:50:10;100163.00;;;3.90
69435;BMP180;56625;54.322;18.582;2024-01-25T08:52:40;100159.80;;;3.90
69435;BMP180;56625;54.322;18.582;2024-01-25T08:55:09;100174.20;;;3.80
69435;BMP180;56625;54.322;18.582;2024-01-25T08:57:37;100177.80;;;3.80
69435;BMP180;56625;54.322;18.582;2024-01-25T09:00:08;100181.20;;;3.80
69435;BMP180;56625;54.322;18.582;2024-01-25T09:02:39;100189.80;;;3.80
69435;BMP180;56625;54.322;18.582;2024-01-25T09:05:09;100195.00;;;3.80
69435;BMP180;56625;54.322;18.582;2024-01-25T09:07:42;100204.00;;;3.80
69435;BMP180;56625;54.322;18.582;2024-01-25T09:10:13;100211.00;;;3.70
69435;BMP180;56625;54.322;18.582;2024-01-25T09:12:42;100209.60;;;3.70
69435;BMP180;56625;54.322;18.582;2024-01-25T09:15:13;100218.80;;;3.70
69435;BMP180;56625;54.322;18.582;2024-01-25T09:17:44;100229.40;;;3.72
69435;BMP180;56625;54.322;18.582;2024-01-25T09:20:15;100230.40;;;3.74
69435;BMP180;56625;54.322;18.582;2024-01-25T09:22:47;100230.40;;;3.70
69435;BMP180;56625;54.322;18.582;2024-01-25T09:25:17;100234.00;;;3.70
69435;BMP180;56625;54.322;18.582;2024-01-25T09:27:48;100235.80;;;3.78
69435;BMP180;56625;54.322;18.582;2024-01-25T09:30:19;100235.60;;;3.80
69435;BMP180;56625;54.322;18.582;2024-01-25T09:32:50;100247.60;;;3.80
69435;BMP180;56625;54.322;18.582;2024-01-25T09:35:19;100241.60;;;3.80
69435;BMP180;56625;54.322;18.582;2024-01-25T09:37:50;100241.80;;;3.80
69435;BMP180;56625;54.322;18.582;2024-01-25T09:40:23;100246.40;;;3.92
69435;BMP180;56625;54.322;18.582;2024-01-25T09:42:55;100247.80;;;4.02
69435;BMP180;56625;54.322;18.582;2024-01-25T09:45:25;100246.20;;;4.20
69435;BMP180;56625;54.322;18.582;2024-01-25T09:47:54;100247.40;;;4.32
69435;BMP180;56625;54.322;18.582;2024-01-25T09:50:25;100253.60;;;4.50
69435;BMP180;56625;54.322;18.582;2024-01-25T09:52:57;100251.60;;;4.70
69435;BMP180;56625;54.322;18.582;2024-01-25T09:55:32;100254.40;;;4.90
69435;BMP180;56625;54.322;18.582;2024-01-25T09:58:10;100255.00;;;5.04
69435;BMP180;56625;54.322;18.582;2024-01-25T10:00:42;100246.60;;;5.10
69435;BMP180;56625;54.322;18.582;2024-01-25T10:03:13;100250.00;;;5.20
69435;BMP180;56625;54.322;18.582;2024-01-25T10:05:44;100255.60;;;5.30
69435;BMP180;56625;54.322;18.582;2024-01-25T10:08:15;100253.20;;;5.32
69435;BMP180;56625;54.322;18.582;2024-01-25T10:10:45;100260.60;;;5.34
69435;BMP180;56625;54.322;18.582;2024-01-25T10:13:17;100264.00;;;5.40
69435;BMP180;56625;54.322;18.582;2024-01-25T10:15:46;100271.60;;;5.50
69435;BMP180;56625;54.322;18.582;2024-01-25T10:18:17;100276.00;;;5.60
69435;BMP180;56625;54.322;18.582;2024-01-25T10:20:58;100279.40;;;5.70
69435;BMP180;56625;54.322;18.582;2024-01-25T10:23:31;100284.80;;;5.70
69435;BMP180;56625;54.322;18.582;2024-01-25T10:26:03;100285.40;;;5.70
69435;BMP180;56625;54.322;18.582;2024-01-25T10:28:34;100305.60;;;5.72
69435;BMP180;56625;54.322;18.582;2024-01-25T10:31:05;100308.20;;;5.80
69435;BMP180;56625;54.322;18.582;2024-01-25T10:33:38;100305.80;;;5.80
69435;BMP180;56625;54.322;18.582;2024-01-25T10:36:08;100313.20;;;5.80
69435;BMP180;56625;54.322;18.582;2024-01-25T10:38:41;100313.80;;;5.74
69435;BMP180;56625;54.322;18.582;2024-01-25T10:41:13;100307.20;;;5.72
69435;BMP180;56625;54.322;18.582;2024-01-25T10:43:43;100311.60;;;5.72
69435;BMP180;56625;54.322;18.582;2024-01-25T10:46:14;100316.60;;;5.72
69435;BMP180;56625;54.322;18.582;2024-01-25T10:48:46;100319.20;;;5.70
69435;BMP180;56625;54.322;18.582;2024-01-25T10:51:17;100334.60;;;5.70
69435;BMP180;56625;54.322;18.582;2024-01-25T10:53:48;100339.00;;;5.72
69435;BMP180;56625;54.322;18.582;2024-01-25T10:56:18;100344.80;;;5.80
69435;BMP180;56625;54.322;18.582;2024-01-25T10:58:49;100344.20;;;5.70
69435;BMP180;56625;54.322;18.582;2024-01-25T11:01:21;100353.60;;;5.70
69435;BMP180;56625;54.322;18.582;2024-01-25T11:03:51;100349.60;;;5.76
69435;BMP180;56625;54.322;18.582;2024-01-25T11:06:22;100348.80;;;5.80
69435;BMP180;56625;54.322;18.582;2024-01-25T11:09:06;100356.80;;;5.90
69435;BMP180;56625;54.322;18.582;2024-01-25T11:11:37;100357.00;;;6.10
69435;BMP180;56625;54.322;18.582;2024-01-25T11:14:13;100367.00;;;6.10
69435;BMP180;56625;54.322;18.582;2024-01-25T11:16:46;100373.60;;;5.90
69435;BMP180;56625;54.322;18.582;2024-01-25T11:19:22;100378.60;;;5.78
69435;BMP180;56625;54.322;18.582;2024-01-25T11:21:52;100390.60;;;5.70
69435;BMP180;56625;54.322;18.582;2024-01-25T11:24:25;100391.20;;;5.60
69435;BMP180;56625;54.322;18.582;2024-01-25T11:27:00;100394.20;;;5.40
69435;BMP180;56625;54.322;18.582;2024-01-25T11:29:30;100401.20;;;5.22
69435;BMP180;56625;54.322;18.582;2024-01-25T11:31:58;100408.80;;;5.20
69435;BMP180;56625;54.322;18.582;2024-01-25T11:34:26;100413.20;;;5.06
69435;BMP180;56625;54.322;18.582;2024-01-25T11:36:55;100422.40;;;5.10
69435;BMP180;56625;54.322;18.582;2024-01-25T11:39:38;100420.80;;;5.10
69435;BMP180;56625;54.322;18.582;2024-01-25T11:42:07;100421.20;;;5.00
69435;BMP180;56625;54.322;18.582;2024-01-25T11:44:35;100429.80;;;4.90
69435;BMP180;56625;54.322;18.582;2024-01-25T11:47:03;100429.40;;;4.80
69435;BMP180;56625;54.322;18.582;2024-01-25T11:49:31;100443.80;;;4.80
69435;BMP180;56625;54.322;18.582;2024-01-25T11:52:00;100445.60;;;4.80
69435;BMP180;56625;54.322;18.582;2024-01-25T11:54:30;100448.00;;;4.80
69435;BMP180;56625;54.322;18.582;2024-01-25T11:56:58;100457.60;;;4.80
69435;BMP180;56625;54.322;18.582;2024-01-25T11:59:27;100458.20;;;4.80
69435;BMP180;56625;54.322;18.582;2024-01-25T12:01:55;100459.60;;;4.80
69435;BMP180;56625;54.322;18.582;2024-01-25T12:04:24;100460.80;;;4.70
69435;BMP180;56625;54.322;18.582;2024-01-25T12:06:53;100469.40;;;4.70
69435;BMP180;56625;54.322;18.582;2024-01-25T12:09:21;100465.00;;;4.70
69435;BMP180;56625;54.322;18.582;2024-01-25T12:11:49;100478.80;;;4.70
69435;BMP180;56625;54.322;18.582;2024-01-25T12:14:19;100485.40;;;4.70
69435;BMP180;56625;54.322;18.582;2024-01-25T12:16:47;100489.00;;;4.70
69435;BMP180;56625;54.322;18.582;2024-01-25T12:19:15;100493.80;;;4.72
69435;BMP180;56625;54.322;18.582;2024-01-25T12:21:44;100497.00;;;4.78
69435;BMP180;56625;54.322;18.582;2024-01-25T12:24:12;100500.40;;;4.70
69435;BMP180;56625;54.322;18.582;2024-01-25T12:26:43;100510.20;;;4.70
69435;BMP180;56625;54.322;18.582;2024-01-25T12:29:11;100523.80;;;4.70
69435;BMP180;56625;54.322;18.582;2024-01-25T12:31:40;100524.00;;;4.70
69435;BMP180;56625;54.322;18.582;2024-01-25T12:34:14;100516.40;;;4.70
69435;BMP180;56625;54.322;18.582;2024-01-25T12:36:44;100523.80;;;4.70
69435;BMP180;56625;54.322;18.582;2024-01-25T12:39:12;100535.60;;;4.70
69435;BMP180;56625;54.322;18.582;2024-01-25T12:41:47;100543.00;;;4.64
69435;BMP180;56625;54.322;18.582;2024-01-25T12:44:15;100550.60;;;4.70
69435;BMP180;56625;54.322;18.582;2024-01-25T12:46:43;100551.80;;;4.60
69435;BMP180;56625;54.322;18.582;2024-01-25T12:49:11;100554.20;;;4.60
69435;BMP180;56625;54.322;18.582;2024-01-25T12:51:40;100563.20;;;4.60
69435;BMP180;56625;54.322;18.582;2024-01-25T12:54:08;100562.00;;;4.60
69435;BMP180;56625;54.322;18.582;2024-01-25T12:56:37;100561.80;;;4.56
69435;BMP180;56625;54.322;18.582;2024-01-25T12:59:05;100567.00;;;4.60
69435;BMP180;56625;54.322;18.582;2024-01-25T13:01:34;100568.60;;;4.58
69435;BMP180;56625;54.322;18.582;2024-01-25T13:04:02;100569.60;;;4.50
69435;BMP180;56625;54.322;18.582;2024-01-25T13:06:31;100575.80;;;4.50
69435;BMP180;56625;54.322;18.582;2024-01-25T13:08:59;100578.60;;;4.44
69435;BMP180;56625;54.322;18.582;2024-01-25T13:11:27;100590.60;;;4.40
69435;BMP180;56625;54.322;18.582;2024-01-25T13:13:55;100597.20;;;4.40
69435;BMP180;56625;54.322;18.582;2024-01-25T13:16:23;100599.40;;;4.40
69435;BMP180;56625;54.322;18.582;2024-01-25T13:18:51;100613.00;;;4.40
69435;BMP180;56625;54.322;18.582;2024-01-25T13:21:20;100621.00;;;4.34
69435;BMP180;56625;54.322;18.582;2024-01-25T13:23:48;100625.40;;;4.34
69435;BMP180;56625;54.322;18.582;2024-01-25T13:26:16;100638.00;;;4.30
69435;BMP180;56625;54.322;18.582;2024-01-25T13:28:44;100629.20;;;4.32
69435;BMP180;56625;54.322;18.582;2024-01-25T13:31:12;100638.80;;;4.30
69435;BMP180;56625;54.322;18.582;2024-01-25T13:33:40;100635.60;;;4.30
69435;BMP180;56625;54.322;18.582;2024-01-25T13:36:11;100646.60;;;4.32
69435;BMP180;56625;54.322;18.582;2024-01-25T13:38:42;100643.40;;;4.40
69435;BMP180;56625;54.322;18.582;2024-01-25T13:41:10;100654.00;;;4.40
69435;BMP180;56625;54.322;18.582;2024-01-25T13:43:38;100665.80;;;4.30
69435;BMP180;56625;54.322;18.582;2024-01-25T13:46:06;100672.00;;;4.30
69435;BMP180;56625;54.322;18.582;2024-01-25T13:48:34;100680.20;;;4.20
69435;BMP180;56625;54.322;18.582;2024-01-25T13:51:02;100684.60;;;4.20
69435;BMP180;56625;54.322;18.582;2024-01-25T13:53:31;100696.00;;;4.10
69435;BMP180;56625;54.322;18.582;2024-01-25T13:55:59;100704.40;;;4.00
69435;BMP180;56625;54.322;18.582;2024-01-25T13:58:27;100712.80;;;3.94
69435;BMP180;56625;54.322;18.582;2024-01-25T14:00:55;100713.80;;;3.86
69435;BMP180;56625;54.322;18.582;2024-01-25T14:03:23;100713.40;;;3.80
69435;BMP180;56625;54.322;18.582;2024-01-25T14:05:52;100717.60;;;3.70
69435;BMP180;56625;54.322;18.582;2024-01-25T14:08:20;100726.80;;;3.60
69435;BMP180;56625;54.322;18.582;2024-01-25T14:10:48;100733.20;;;3.60
69435;BMP180;56625;54.322;18.582;2024-01-25T14:13:16;100733.80;;;3.60
69435;BMP180;56625;54.322;18.582;2024-01-25T14:15:45;100739.00;;;3.50